Terminal Aerodrome Forecast
Issued by NWS

Home | Current Version | Previous Version | Graphics & Text | Print | Product List | Glossary Off
Versions: 1 2 3 4 5 6 7 8 9 10 11 12 13 14 15 16 17 18 19

108
FTUS43 KICT 100522
TAFRSL
TAF
KRSL 100522Z 1006/1106 16009KT P6SM SCT150
     FM101500 16012KT P6SM SCT020 BKN030
     FM101800 17015G22KT P6SM SCT020 BKN035
     FM110000 14008KT P6SM SCT250=

USA.gov is the U.S. government's official web portal to all federal, state and local government web resources and services.